sensor_id;sensor_type;location;lat;lon;timestamp;P1;durP1;ratioP1;P2;durP2;ratioP2
73816;SDS011;62146;53.232;-1.304;2023-02-28T00:00:30;5.13;;;2.38;;
73816;SDS011;62146;53.232;-1.304;2023-02-28T00:02:57;4.83;;;2.27;;
73816;SDS011;62146;53.232;-1.304;2023-02-28T00:05:25;4.43;;;1.90;;
73816;SDS011;62146;53.232;-1.304;2023-02-28T00:07:53;5.72;;;2.30;;
73816;SDS011;62146;53.232;-1.304;2023-02-28T00:10:21;5.60;;;2.03;;
73816;SDS011;62146;53.232;-1.304;2023-02-28T00:12:50;5.63;;;2.20;;
73816;SDS011;62146;53.232;-1.304;2023-02-28T00:15:17;5.07;;;2.37;;
73816;SDS011;62146;53.232;-1.304;2023-02-28T00:17:45;4.68;;;2.30;;
73816;SDS011;62146;53.232;-1.304;2023-02-28T00:20:12;4.07;;;1.90;;
73816;SDS011;62146;53.232;-1.304;2023-02-28T00:22:40;4.45;;;1.73;;
73816;SDS011;62146;53.232;-1.304;2023-02-28T00:25:09;5.10;;;2.03;;
73816;SDS011;62146;53.232;-1.304;2023-02-28T00:27:37;4.40;;;1.90;;
73816;SDS011;62146;53.232;-1.304;2023-02-28T00:30:05;6.13;;;1.88;;
73816;SDS011;62146;53.232;-1.304;2023-02-28T00:32:35;4.57;;;1.83;;
73816;SDS011;62146;53.232;-1.304;2023-02-28T00:35:02;4.82;;;2.05;;
73816;SDS011;62146;53.232;-1.304;2023-02-28T00:37:29;5.45;;;2.00;;
73816;SDS011;62146;53.232;-1.304;2023-02-28T00:39:56;4.43;;;1.63;;
73816;SDS011;62146;53.232;-1.304;2023-02-28T00:42:22;3.92;;;1.52;;
73816;SDS011;62146;53.232;-1.304;2023-02-28T00:44:50;4.25;;;1.70;;
73816;SDS011;62146;53.232;-1.304;2023-02-28T00:47:16;4.28;;;1.75;;
73816;SDS011;62146;53.232;-1.304;2023-02-28T00:49:43;5.68;;;1.70;;
73816;SDS011;62146;53.232;-1.304;2023-02-28T00:52:10;4.73;;;1.67;;
73816;SDS011;62146;53.232;-1.304;2023-02-28T00:54:36;3.80;;;1.60;;
73816;SDS011;62146;53.232;-1.304;2023-02-28T00:57:03;4.40;;;1.45;;
73816;SDS011;62146;53.232;-1.304;2023-02-28T00:59:30;4.65;;;1.77;;
73816;SDS011;62146;53.232;-1.304;2023-02-28T01:01:56;4.78;;;1.70;;
73816;SDS011;62146;53.232;-1.304;2023-02-28T01:04:23;3.83;;;1.60;;
73816;SDS011;62146;53.232;-1.304;2023-02-28T01:06:49;3.90;;;1.70;;
73816;SDS011;62146;53.232;-1.304;2023-02-28T01:09:16;4.85;;;1.60;;
73816;SDS011;62146;53.232;-1.304;2023-02-28T01:11:43;4.18;;;1.63;;
73816;SDS011;62146;53.232;-1.304;2023-02-28T01:14:13;5.07;;;2.08;;
73816;SDS011;62146;53.232;-1.304;2023-02-28T01:16:41;3.97;;;1.60;;
73816;SDS011;62146;53.232;-1.304;2023-02-28T01:19:08;3.78;;;1.75;;
73816;SDS011;62146;53.232;-1.304;2023-02-28T01:21:35;4.03;;;1.83;;
73816;SDS011;62146;53.232;-1.304;2023-02-28T01:24:02;4.50;;;1.73;;
73816;SDS011;62146;53.232;-1.304;2023-02-28T01:26:30;4.78;;;1.92;;
73816;SDS011;62146;53.232;-1.304;2023-02-28T01:28:56;4.50;;;1.83;;
73816;SDS011;62146;53.232;-1.304;2023-02-28T01:31:23;4.43;;;2.03;;
73816;SDS011;62146;53.232;-1.304;2023-02-28T01:33:50;4.88;;;2.25;;
73816;SDS011;62146;53.232;-1.304;2023-02-28T01:36:18;5.88;;;2.30;;
73816;SDS011;62146;53.232;-1.304;2023-02-28T01:38:47;4.47;;;2.28;;
73816;SDS011;62146;53.232;-1.304;2023-02-28T01:41:24;5.40;;;2.20;;
73816;SDS011;62146;53.232;-1.304;2023-02-28T01:44:02;4.65;;;2.30;;
73816;SDS011;62146;53.232;-1.304;2023-02-28T01:46:32;4.43;;;2.30;;
73816;SDS011;62146;53.232;-1.304;2023-02-28T01:51:31;4.57;;;2.10;;
73816;SDS011;62146;53.232;-1.304;2023-02-28T01:54:05;5.40;;;2.20;;
73816;SDS011;62146;53.232;-1.304;2023-02-28T01:56:41;5.57;;;1.90;;
73816;SDS011;62146;53.232;-1.304;2023-02-28T01:59:12;5.88;;;1.92;;
73816;SDS011;62146;53.232;-1.304;2023-02-28T02:01:44;4.30;;;1.90;;
73816;SDS011;62146;53.232;-1.304;2023-02-28T02:04:10;4.35;;;1.85;;
73816;SDS011;62146;53.232;-1.304;2023-02-28T02:06:38;3.70;;;1.77;;
73816;SDS011;62146;53.232;-1.304;2023-02-28T02:09:08;3.92;;;1.70;;
73816;SDS011;62146;53.232;-1.304;2023-02-28T02:11:35;4.00;;;1.58;;
73816;SDS011;62146;53.232;-1.304;2023-02-28T02:16:40;4.03;;;1.83;;
73816;SDS011;62146;53.232;-1.304;2023-02-28T02:26:01;3.97;;;1.73;;
73816;SDS011;62146;53.232;-1.304;2023-02-28T02:28:22;4.70;;;1.70;;
73816;SDS011;62146;53.232;-1.304;2023-02-28T02:36:26;4.28;;;1.60;;
73816;SDS011;62146;53.232;-1.304;2023-02-28T02:44:13;4.95;;;2.13;;
73816;SDS011;62146;53.232;-1.304;2023-02-28T02:46:47;5.67;;;2.50;;
73816;SDS011;62146;53.232;-1.304;2023-02-28T02:49:28;4.93;;;2.30;;
73816;SDS011;62146;53.232;-1.304;2023-02-28T02:52:00;7.40;;;2.38;;
73816;SDS011;62146;53.232;-1.304;2023-02-28T02:54:33;5.78;;;2.33;;
73816;SDS011;62146;53.232;-1.304;2023-02-28T02:57:05;5.93;;;2.45;;
73816;SDS011;62146;53.232;-1.304;2023-02-28T02:59:35;6.63;;;2.83;;
73816;SDS011;62146;53.232;-1.304;2023-02-28T03:02:06;5.32;;;2.50;;
73816;SDS011;62146;53.232;-1.304;2023-02-28T03:04:42;6.60;;;2.70;;
73816;SDS011;62146;53.232;-1.304;2023-02-28T03:07:12;6.05;;;3.00;;
73816;SDS011;62146;53.232;-1.304;2023-02-28T03:09:38;5.18;;;2.53;;
73816;SDS011;62146;53.232;-1.304;2023-02-28T03:12:07;5.53;;;2.73;;
73816;SDS011;62146;53.232;-1.304;2023-02-28T03:17:35;5.22;;;2.55;;
73816;SDS011;62146;53.232;-1.304;2023-02-28T03:33:14;5.40;;;2.80;;
73816;SDS011;62146;53.232;-1.304;2023-02-28T03:35:48;5.93;;;2.75;;
73816;SDS011;62146;53.232;-1.304;2023-02-28T03:38:33;5.03;;;2.50;;
73816;SDS011;62146;53.232;-1.304;2023-02-28T03:41:50;6.18;;;2.42;;
73816;SDS011;62146;53.232;-1.304;2023-02-28T03:44:15;4.90;;;2.40;;
73816;SDS011;62146;53.232;-1.304;2023-02-28T03:47:21;6.43;;;2.40;;
73816;SDS011;62146;53.232;-1.304;2023-02-28T03:50:25;4.55;;;2.38;;
73816;SDS011;62146;53.232;-1.304;2023-02-28T03:52:40;5.60;;;2.20;;
73816;SDS011;62146;53.232;-1.304;2023-02-28T03:55:12;5.13;;;2.40;;
73816;SDS011;62146;53.232;-1.304;2023-02-28T03:57:56;5.68;;;2.40;;
73816;SDS011;62146;53.232;-1.304;2023-02-28T04:03:15;4.70;;;2.10;;
73816;SDS011;62146;53.232;-1.304;2023-02-28T04:05:50;4.73;;;2.30;;
73816;SDS011;62146;53.232;-1.304;2023-02-28T04:08:19;4.43;;;2.00;;
73816;SDS011;62146;53.232;-1.304;2023-02-28T04:10:48;5.00;;;2.00;;
73816;SDS011;62146;53.232;-1.304;2023-02-28T04:13:20;3.88;;;1.90;;
73816;SDS011;62146;53.232;-1.304;2023-02-28T04:15:46;4.93;;;2.10;;
73816;SDS011;62146;53.232;-1.304;2023-02-28T04:18:13;4.63;;;2.20;;
73816;SDS011;62146;53.232;-1.304;2023-02-28T04:20:39;4.35;;;2.05;;
73816;SDS011;62146;53.232;-1.304;2023-02-28T04:23:06;4.18;;;1.95;;
73816;SDS011;62146;53.232;-1.304;2023-02-28T04:25:32;5.30;;;1.88;;
73816;SDS011;62146;53.232;-1.304;2023-02-28T04:27:59;4.68;;;2.05;;
73816;SDS011;62146;53.232;-1.304;2023-02-28T04:30:26;3.60;;;1.70;;
73816;SDS011;62146;53.232;-1.304;2023-02-28T04:32:52;4.47;;;1.85;;
73816;SDS011;62146;53.232;-1.304;2023-02-28T04:35:19;4.32;;;1.80;;
73816;SDS011;62146;53.232;-1.304;2023-02-28T04:37:45;3.75;;;1.70;;
73816;SDS011;62146;53.232;-1.304;2023-02-28T04:40:12;3.63;;;1.70;;
73816;SDS011;62146;53.232;-1.304;2023-02-28T04:42:38;3.87;;;1.80;;
73816;SDS011;62146;53.232;-1.304;2023-02-28T04:45:05;4.35;;;1.60;;
73816;SDS011;62146;53.232;-1.304;2023-02-28T04:47:32;5.10;;;2.00;;
73816;SDS011;62146;53.232;-1.304;2023-02-28T04:49:59;5.30;;;2.03;;
73816;SDS011;62146;53.232;-1.304;2023-02-28T04:52:27;3.65;;;1.60;;
73816;SDS011;62146;53.232;-1.304;2023-02-28T04:54:54;4.30;;;1.73;;
73816;SDS011;62146;53.232;-1.304;2023-02-28T04:57:20;3.83;;;1.67;;
73816;SDS011;62146;53.232;-1.304;2023-02-28T04:59:47;5.03;;;2.35;;
73816;SDS011;62146;53.232;-1.304;2023-02-28T05:02:13;4.15;;;2.00;;
73816;SDS011;62146;53.232;-1.304;2023-02-28T05:04:40;5.47;;;2.55;;
73816;SDS011;62146;53.232;-1.304;2023-02-28T05:07:06;5.03;;;2.37;;
73816;SDS011;62146;53.232;-1.304;2023-02-28T05:09:33;6.35;;;3.10;;
73816;SDS011;62146;53.232;-1.304;2023-02-28T05:12:00;5.95;;;2.72;;
73816;SDS011;62146;53.232;-1.304;2023-02-28T05:14:26;5.93;;;3.15;;
73816;SDS011;62146;53.232;-1.304;2023-02-28T05:16:53;5.47;;;2.53;;
73816;SDS011;62146;53.232;-1.304;2023-02-28T05:19:19;7.67;;;3.40;;
73816;SDS011;62146;53.232;-1.304;2023-02-28T05:21:51;6.55;;;2.97;;
73816;SDS011;62146;53.232;-1.304;2023-02-28T05:24:20;6.00;;;3.25;;
73816;SDS011;62146;53.232;-1.304;2023-02-28T05:26:49;7.05;;;3.47;;
73816;SDS011;62146;53.232;-1.304;2023-02-28T05:29:18;6.28;;;2.95;;
73816;SDS011;62146;53.232;-1.304;2023-02-28T05:31:45;6.50;;;3.00;;
73816;SDS011;62146;53.232;-1.304;2023-02-28T05:34:12;6.80;;;3.30;;
73816;SDS011;62146;53.232;-1.304;2023-02-28T05:36:39;7.80;;;3.53;;
73816;SDS011;62146;53.232;-1.304;2023-02-28T05:39:06;7.80;;;3.72;;
73816;SDS011;62146;53.232;-1.304;2023-02-28T05:41:39;6.47;;;3.20;;
73816;SDS011;62146;53.232;-1.304;2023-02-28T05:44:09;6.27;;;3.23;;
73816;SDS011;62146;53.232;-1.304;2023-02-28T05:46:36;7.25;;;3.50;;
73816;SDS011;62146;53.232;-1.304;2023-02-28T05:49:04;6.03;;;3.20;;
73816;SDS011;62146;53.232;-1.304;2023-02-28T05:51:31;7.35;;;3.35;;
73816;SDS011;62146;53.232;-1.304;2023-02-28T05:53:58;5.90;;;3.42;;
73816;SDS011;62146;53.232;-1.304;2023-02-28T05:56:26;6.80;;;3.57;;
73816;SDS011;62146;53.232;-1.304;2023-02-28T05:58:53;7.43;;;3.55;;
73816;SDS011;62146;53.232;-1.304;2023-02-28T06:01:41;7.15;;;3.55;;
73816;SDS011;62146;53.232;-1.304;2023-02-28T06:04:08;7.72;;;3.50;;
73816;SDS011;62146;53.232;-1.304;2023-02-28T06:06:50;5.97;;;2.83;;
73816;SDS011;62146;53.232;-1.304;2023-02-28T06:09:17;5.97;;;3.30;;
73816;SDS011;62146;53.232;-1.304;2023-02-28T06:11:45;6.65;;;3.47;;
73816;SDS011;62146;53.232;-1.304;2023-02-28T06:14:15;6.13;;;2.92;;
73816;SDS011;62146;53.232;-1.304;2023-02-28T06:16:44;6.03;;;2.97;;
73816;SDS011;62146;53.232;-1.304;2023-02-28T06:19:11;5.25;;;2.70;;
73816;SDS011;62146;53.232;-1.304;2023-02-28T06:21:37;5.47;;;2.83;;
73816;SDS011;62146;53.232;-1.304;2023-02-28T06:24:05;6.40;;;2.80;;
73816;SDS011;62146;53.232;-1.304;2023-02-28T06:26:31;7.15;;;3.05;;
73816;SDS011;62146;53.232;-1.304;2023-02-28T06:28:58;5.20;;;2.45;;
73816;SDS011;62146;53.232;-1.304;2023-02-28T06:31:26;6.45;;;2.50;;
73816;SDS011;62146;53.232;-1.304;2023-02-28T06:33:55;4.97;;;2.57;;
73816;SDS011;62146;53.232;-1.304;2023-02-28T06:36:22;5.07;;;2.53;;
73816;SDS011;62146;53.232;-1.304;2023-02-28T06:38:49;5.25;;;2.30;;
73816;SDS011;62146;53.232;-1.304;2023-02-28T06:41:21;5.50;;;2.58;;
73816;SDS011;62146;53.232;-1.304;2023-02-28T06:43:52;5.93;;;2.60;;
73816;SDS011;62146;53.232;-1.304;2023-02-28T06:46:19;4.93;;;2.30;;
73816;SDS011;62146;53.232;-1.304;2023-02-28T06:48:46;6.70;;;2.80;;
73816;SDS011;62146;53.232;-1.304;2023-02-28T06:51:14;7.32;;;2.65;;
73816;SDS011;62146;53.232;-1.304;2023-02-28T06:53:43;4.88;;;2.30;;
73816;SDS011;62146;53.232;-1.304;2023-02-28T06:56:10;5.25;;;2.45;;
73816;SDS011;62146;53.232;-1.304;2023-02-28T06:58:39;4.00;;;1.90;;
73816;SDS011;62146;53.232;-1.304;2023-02-28T07:01:06;4.68;;;2.10;;
73816;SDS011;62146;53.232;-1.304;2023-02-28T07:03:34;6.50;;;2.28;;
73816;SDS011;62146;53.232;-1.304;2023-02-28T07:06:02;6.03;;;2.47;;
73816;SDS011;62146;53.232;-1.304;2023-02-28T07:08:30;5.22;;;2.28;;
73816;SDS011;62146;53.232;-1.304;2023-02-28T07:10:57;5.17;;;2.43;;
73816;SDS011;62146;53.232;-1.304;2023-02-28T07:13:24;6.47;;;2.28;;
73816;SDS011;62146;53.232;-1.304;2023-02-28T07:15:58;4.72;;;2.33;;
73816;SDS011;62146;53.232;-1.304;2023-02-28T07:18:26;4.75;;;2.13;;
73816;SDS011;62146;53.232;-1.304;2023-02-28T07:20:53;6.63;;;2.42;;
73816;SDS011;62146;53.232;-1.304;2023-02-28T07:23:20;5.33;;;2.60;;
73816;SDS011;62146;53.232;-1.304;2023-02-28T07:25:47;5.30;;;2.28;;
73816;SDS011;62146;53.232;-1.304;2023-02-28T07:28:16;6.65;;;2.60;;
73816;SDS011;62146;53.232;-1.304;2023-02-28T07:30:43;6.05;;;2.40;;
73816;SDS011;62146;53.232;-1.304;2023-02-28T07:33:09;5.70;;;2.20;;
73816;SDS011;62146;53.232;-1.304;2023-02-28T07:35:36;6.63;;;3.27;;
73816;SDS011;62146;53.232;-1.304;2023-02-28T07:38:03;5.25;;;2.72;;
73816;SDS011;62146;53.232;-1.304;2023-02-28T07:40:30;5.90;;;2.78;;
73816;SDS011;62146;53.232;-1.304;2023-02-28T07:42:57;5.60;;;2.30;;
73816;SDS011;62146;53.232;-1.304;2023-02-28T07:45:25;6.82;;;2.67;;
73816;SDS011;62146;53.232;-1.304;2023-02-28T07:47:52;4.87;;;2.00;;
73816;SDS011;62146;53.232;-1.304;2023-02-28T07:50:19;6.75;;;2.70;;
73816;SDS011;62146;53.232;-1.304;2023-02-28T07:52:45;5.07;;;2.45;;
73816;SDS011;62146;53.232;-1.304;2023-02-28T07:55:12;6.10;;;2.40;;
73816;SDS011;62146;53.232;-1.304;2023-02-28T07:57:40;6.63;;;2.63;;
73816;SDS011;62146;53.232;-1.304;2023-02-28T08:00:07;4.83;;;2.50;;
73816;SDS011;62146;53.232;-1.304;2023-02-28T08:02:36;5.78;;;2.50;;
73816;SDS011;62146;53.232;-1.304;2023-02-28T08:05:03;6.53;;;2.35;;
73816;SDS011;62146;53.232;-1.304;2023-02-28T08:07:30;4.90;;;2.22;;
73816;SDS011;62146;53.232;-1.304;2023-02-28T08:09:57;5.38;;;2.47;;
73816;SDS011;62146;53.232;-1.304;2023-02-28T08:12:24;4.80;;;2.47;;
73816;SDS011;62146;53.232;-1.304;2023-02-28T08:14:51;4.80;;;2.20;;
73816;SDS011;62146;53.232;-1.304;2023-02-28T08:17:17;4.93;;;2.20;;
73816;SDS011;62146;53.232;-1.304;2023-02-28T08:19:47;5.32;;;2.42;;
73816;SDS011;62146;53.232;-1.304;2023-02-28T08:22:13;5.47;;;2.30;;
73816;SDS011;62146;53.232;-1.304;2023-02-28T08:24:41;5.20;;;2.40;;
73816;SDS011;62146;53.232;-1.304;2023-02-28T08:27:09;4.80;;;2.25;;
73816;SDS011;62146;53.232;-1.304;2023-02-28T08:29:39;6.38;;;2.15;;
73816;SDS011;62146;53.232;-1.304;2023-02-28T08:32:06;5.15;;;2.50;;
73816;SDS011;62146;53.232;-1.304;2023-02-28T08:34:48;5.47;;;2.50;;
73816;SDS011;62146;53.232;-1.304;2023-02-28T08:37:15;5.23;;;2.33;;
73816;SDS011;62146;53.232;-1.304;2023-02-28T08:39:41;6.57;;;2.50;;
73816;SDS011;62146;53.232;-1.304;2023-02-28T08:42:08;5.50;;;2.35;;
73816;SDS011;62146;53.232;-1.304;2023-02-28T08:44:35;6.75;;;2.88;;
73816;SDS011;62146;53.232;-1.304;2023-02-28T08:47:01;5.45;;;2.42;;
73816;SDS011;62146;53.232;-1.304;2023-02-28T08:49:28;7.33;;;2.90;;
73816;SDS011;62146;53.232;-1.304;2023-02-28T08:51:54;6.82;;;2.88;;
73816;SDS011;62146;53.232;-1.304;2023-02-28T08:54:23;5.45;;;2.50;;
73816;SDS011;62146;53.232;-1.304;2023-02-28T08:56:50;5.35;;;2.42;;
73816;SDS011;62146;53.232;-1.304;2023-02-28T08:59:16;6.25;;;2.78;;
73816;SDS011;62146;53.232;-1.304;2023-02-28T09:01:43;6.10;;;2.97;;
73816;SDS011;62146;53.232;-1.304;2023-02-28T09:04:10;9.02;;;2.83;;
73816;SDS011;62146;53.232;-1.304;2023-02-28T09:06:42;6.18;;;2.55;;
73816;SDS011;62146;53.232;-1.304;2023-02-28T09:09:10;5.95;;;2.50;;
73816;SDS011;62146;53.232;-1.304;2023-02-28T09:11:37;6.47;;;2.70;;
73816;SDS011;62146;53.232;-1.304;2023-02-28T09:14:03;5.47;;;2.60;;
73816;SDS011;62146;53.232;-1.304;2023-02-28T09:16:33;5.82;;;2.83;;
73816;SDS011;62146;53.232;-1.304;2023-02-28T09:19:01;6.28;;;2.75;;
73816;SDS011;62146;53.232;-1.304;2023-02-28T09:21:28;6.38;;;2.80;;
73816;SDS011;62146;53.232;-1.304;2023-02-28T09:23:55;5.35;;;2.78;;
73816;SDS011;62146;53.232;-1.304;2023-02-28T09:26:22;5.87;;;2.60;;
73816;SDS011;62146;53.232;-1.304;2023-02-28T09:28:51;6.00;;;2.50;;
73816;SDS011;62146;53.232;-1.304;2023-02-28T09:31:20;6.35;;;3.00;;
73816;SDS011;62146;53.232;-1.304;2023-02-28T09:33:49;6.10;;;2.85;;
73816;SDS011;62146;53.232;-1.304;2023-02-28T09:36:16;8.32;;;2.88;;
73816;SDS011;62146;53.232;-1.304;2023-02-28T09:38:44;7.00;;;3.00;;
73816;SDS011;62146;53.232;-1.304;2023-02-28T09:41:15;4.97;;;2.40;;
73816;SDS011;62146;53.232;-1.304;2023-02-28T09:43:44;5.68;;;2.53;;
73816;SDS011;62146;53.232;-1.304;2023-02-28T09:48:47;6.28;;;2.58;;
73816;SDS011;62146;53.232;-1.304;2023-02-28T09:51:22;6.33;;;2.40;;
73816;SDS011;62146;53.232;-1.304;2023-02-28T09:53:56;8.15;;;2.88;;
73816;SDS011;62146;53.232;-1.304;2023-02-28T09:56:38;7.07;;;2.40;;
73816;SDS011;62146;53.232;-1.304;2023-02-28T10:04:34;6.67;;;2.33;;
73816;SDS011;62146;53.232;-1.304;2023-02-28T10:07:03;7.50;;;1.98;;
73816;SDS011;62146;53.232;-1.304;2023-02-28T10:09:48;6.97;;;2.38;;
73816;SDS011;62146;53.232;-1.304;2023-02-28T10:12:20;6.32;;;2.35;;
73816;SDS011;62146;53.232;-1.304;2023-02-28T10:14:48;6.90;;;2.30;;
73816;SDS011;62146;53.232;-1.304;2023-02-28T10:17:21;4.93;;;2.13;;
73816;SDS011;62146;53.232;-1.304;2023-02-28T10:22:32;6.82;;;2.10;;
73816;SDS011;62146;53.232;-1.304;2023-02-28T10:24:59;6.90;;;1.98;;
73816;SDS011;62146;53.232;-1.304;2023-02-28T10:27:32;5.78;;;2.30;;
73816;SDS011;62146;53.232;-1.304;2023-02-28T10:30:01;5.27;;;1.90;;
73816;SDS011;62146;53.232;-1.304;2023-02-28T10:32:35;4.30;;;2.13;;
73816;SDS011;62146;53.232;-1.304;2023-02-28T10:37:41;4.95;;;1.70;;
73816;SDS011;62146;53.232;-1.304;2023-02-28T10:43:03;4.40;;;1.90;;
73816;SDS011;62146;53.232;-1.304;2023-02-28T10:45:39;5.55;;;1.90;;
73816;SDS011;62146;53.232;-1.304;2023-02-28T10:56:23;4.10;;;1.87;;
73816;SDS011;62146;53.232;-1.304;2023-02-28T10:59:01;4.50;;;1.75;;
73816;SDS011;62146;53.232;-1.304;2023-02-28T11:01:43;4.43;;;1.60;;
73816;SDS011;62146;53.232;-1.304;2023-02-28T11:04:39;4.45;;;1.70;;
73816;SDS011;62146;53.232;-1.304;2023-02-28T11:07:19;4.80;;;1.70;;
73816;SDS011;62146;53.232;-1.304;2023-02-28T11:09:50;3.87;;;1.60;;
73816;SDS011;62146;53.232;-1.304;2023-02-28T11:14:51;5.35;;;1.73;;
73816;SDS011;62146;53.232;-1.304;2023-02-28T11:19:51;3.63;;;1.42;;
73816;SDS011;62146;53.232;-1.304;2023-02-28T11:22:24;3.23;;;1.50;;
73816;SDS011;62146;53.232;-1.304;2023-02-28T11:24:55;6.03;;;1.55;;
73816;SDS011;62146;53.232;-1.304;2023-02-28T11:29:58;5.55;;;1.45;;
73816;SDS011;62146;53.232;-1.304;2023-02-28T11:32:26;4.22;;;1.38;;
73816;SDS011;62146;53.232;-1.304;2023-02-28T11:37:37;4.45;;;1.17;;
73816;SDS011;62146;53.232;-1.304;2023-02-28T11:40:08;2.95;;;1.30;;
73816;SDS011;62146;53.232;-1.304;2023-02-28T11:42:44;6.35;;;1.48;;
73816;SDS011;62146;53.232;-1.304;2023-02-28T11:48:17;4.20;;;1.50;;
73816;SDS011;62146;53.232;-1.304;2023-02-28T11:53:49;4.95;;;1.17;;
73816;SDS011;62146;53.232;-1.304;2023-02-28T11:58:46;3.35;;;1.30;;
73816;SDS011;62146;53.232;-1.304;2023-02-28T12:04:35;2.95;;;1.20;;
73816;SDS011;62146;53.232;-1.304;2023-02-28T12:07:42;3.72;;;1.30;;
73816;SDS011;62146;53.232;-1.304;2023-02-28T12:10:25;4.00;;;1.25;;
73816;SDS011;62146;53.232;-1.304;2023-02-28T12:13:39;4.47;;;1.13;;
73816;SDS011;62146;53.232;-1.304;2023-02-28T12:18:33;3.97;;;1.50;;
73816;SDS011;62146;53.232;-1.304;2023-02-28T12:21:31;3.90;;;1.38;;
73816;SDS011;62146;53.232;-1.304;2023-02-28T12:26:46;3.65;;;1.35;;
73816;SDS011;62146;53.232;-1.304;2023-02-28T12:29:23;4.93;;;1.70;;
73816;SDS011;62146;53.232;-1.304;2023-02-28T12:31:56;4.18;;;1.30;;
73816;SDS011;62146;53.232;-1.304;2023-02-28T12:34:33;4.82;;;1.25;;
73816;SDS011;62146;53.232;-1.304;2023-02-28T12:37:06;3.35;;;1.20;;
73816;SDS011;62146;53.232;-1.304;2023-02-28T12:39:37;4.75;;;1.40;;
73816;SDS011;62146;53.232;-1.304;2023-02-28T12:42:17;3.63;;;1.30;;
73816;SDS011;62146;53.232;-1.304;2023-02-28T12:44:52;3.67;;;1.33;;
73816;SDS011;62146;53.232;-1.304;2023-02-28T12:47:22;3.75;;;1.30;;
73816;SDS011;62146;53.232;-1.304;2023-02-28T12:49:54;5.90;;;1.30;;
73816;SDS011;62146;53.232;-1.304;2023-02-28T12:58:27;3.33;;;1.20;;
73816;SDS011;62146;53.232;-1.304;2023-02-28T13:06:23;7.35;;;4.07;;
73816;SDS011;62146;53.232;-1.304;2023-02-28T13:09:09;5.43;;;3.07;;
73816;SDS011;62146;53.232;-1.304;2023-02-28T13:11:44;5.78;;;2.90;;
73816;SDS011;62146;53.232;-1.304;2023-02-28T13:22:19;2.90;;;1.40;;
73816;SDS011;62146;53.232;-1.304;2023-02-28T13:27:49;4.53;;;1.75;;
73816;SDS011;62146;53.232;-1.304;2023-02-28T13:33:35;4.05;;;1.70;;
73816;SDS011;62146;53.232;-1.304;2023-02-28T13:38:45;3.72;;;1.60;;
73816;SDS011;62146;53.232;-1.304;2023-02-28T13:41:41;3.70;;;1.80;;
73816;SDS011;62146;53.232;-1.304;2023-02-28T13:46:36;4.63;;;1.70;;
73816;SDS011;62146;53.232;-1.304;2023-02-28T13:51:53;4.10;;;1.73;;
73816;SDS011;62146;53.232;-1.304;2023-02-28T14:06:30;5.35;;;1.75;;
73816;SDS011;62146;53.232;-1.304;2023-02-28T14:11:38;4.00;;;1.52;;
73816;SDS011;62146;53.232;-1.304;2023-02-28T14:14:07;5.10;;;1.40;;
73816;SDS011;62146;53.232;-1.304;2023-02-28T14:19:05;3.20;;;1.33;;
73816;SDS011;62146;53.232;-1.304;2023-02-28T14:21:39;3.20;;;1.20;;
73816;SDS011;62146;53.232;-1.304;2023-02-28T14:27:15;3.53;;;1.40;;
73816;SDS011;62146;53.232;-1.304;2023-02-28T14:32:25;3.88;;;1.30;;
73816;SDS011;62146;53.232;-1.304;2023-02-28T14:35:02;2.90;;;1.20;;
73816;SDS011;62146;53.232;-1.304;2023-02-28T14:37:56;3.65;;;1.33;;
73816;SDS011;62146;53.232;-1.304;2023-02-28T14:40:30;3.90;;;1.30;;
73816;SDS011;62146;53.232;-1.304;2023-02-28T14:43:02;3.13;;;1.30;;
73816;SDS011;62146;53.232;-1.304;2023-02-28T14:45:31;3.33;;;1.23;;
73816;SDS011;62146;53.232;-1.304;2023-02-28T14:47:59;3.10;;;1.08;;
73816;SDS011;62146;53.232;-1.304;2023-02-28T14:50:33;2.85;;;1.02;;
73816;SDS011;62146;53.232;-1.304;2023-02-28T14:53:02;1.98;;;0.80;;
73816;SDS011;62146;53.232;-1.304;2023-02-28T14:55:34;3.23;;;1.00;;
73816;SDS011;62146;53.232;-1.304;2023-02-28T14:58:05;2.85;;;1.10;;
73816;SDS011;62146;53.232;-1.304;2023-02-28T15:00:33;3.85;;;1.20;;
73816;SDS011;62146;53.232;-1.304;2023-02-28T15:03:20;4.05;;;1.33;;
73816;SDS011;62146;53.232;-1.304;2023-02-28T15:05:52;2.88;;;1.00;;
73816;SDS011;62146;53.232;-1.304;2023-02-28T15:08:20;3.20;;;1.13;;
73816;SDS011;62146;53.232;-1.304;2023-02-28T15:13:19;3.65;;;1.00;;
73816;SDS011;62146;53.232;-1.304;2023-02-28T15:18:42;3.35;;;1.20;;
73816;SDS011;62146;53.232;-1.304;2023-02-28T15:21:20;4.47;;;1.47;;
73816;SDS011;62146;53.232;-1.304;2023-02-28T15:23:55;2.60;;;1.00;;
73816;SDS011;62146;53.232;-1.304;2023-02-28T15:26:46;3.10;;;1.00;;
73816;SDS011;62146;53.232;-1.304;2023-02-28T15:29:17;3.33;;;1.20;;
73816;SDS011;62146;53.232;-1.304;2023-02-28T15:31:50;4.43;;;1.40;;
73816;SDS011;62146;53.232;-1.304;2023-02-28T15:34:37;4.10;;;1.13;;
73816;SDS011;62146;53.232;-1.304;2023-02-28T15:37:26;3.33;;;1.15;;
73816;SDS011;62146;53.232;-1.304;2023-02-28T15:39:56;4.25;;;1.10;;
73816;SDS011;62146;53.232;-1.304;2023-02-28T15:42:27;3.47;;;1.10;;
73816;SDS011;62146;53.232;-1.304;2023-02-28T15:44:55;2.55;;;0.90;;
73816;SDS011;62146;53.232;-1.304;2023-02-28T15:47:22;2.53;;;0.97;;
73816;SDS011;62146;53.232;-1.304;2023-02-28T15:49:56;3.63;;;1.00;;
73816;SDS011;62146;53.232;-1.304;2023-02-28T15:57:51;3.08;;;0.90;;
73816;SDS011;62146;53.232;-1.304;2023-02-28T16:00:21;2.53;;;0.80;;
73816;SDS011;62146;53.232;-1.304;2023-02-28T16:02:50;3.25;;;1.08;;
73816;SDS011;62146;53.232;-1.304;2023-02-28T16:07:59;3.05;;;1.10;;
73816;SDS011;62146;53.232;-1.304;2023-02-28T16:10:39;2.28;;;0.90;;
73816;SDS011;62146;53.232;-1.304;2023-02-28T16:13:06;2.30;;;0.70;;
73816;SDS011;62146;53.232;-1.304;2023-02-28T16:15:38;3.15;;;0.93;;
73816;SDS011;62146;53.232;-1.304;2023-02-28T16:18:12;4.15;;;1.02;;
73816;SDS011;62146;53.232;-1.304;2023-02-28T16:20:39;3.80;;;1.10;;
73816;SDS011;62146;53.232;-1.304;2023-02-28T16:23:06;3.83;;;0.98;;
73816;SDS011;62146;53.232;-1.304;2023-02-28T16:25:35;3.47;;;0.90;;
73816;SDS011;62146;53.232;-1.304;2023-02-28T16:28:04;3.63;;;1.00;;
73816;SDS011;62146;53.232;-1.304;2023-02-28T16:30:43;2.97;;;0.98;;
73816;SDS011;62146;53.232;-1.304;2023-02-28T16:33:10;2.58;;;0.90;;
73816;SDS011;62146;53.232;-1.304;2023-02-28T16:35:36;2.92;;;0.80;;
73816;SDS011;62146;53.232;-1.304;2023-02-28T16:38:03;2.70;;;0.73;;
73816;SDS011;62146;53.232;-1.304;2023-02-28T16:40:32;2.22;;;0.77;;
73816;SDS011;62146;53.232;-1.304;2023-02-28T16:43:01;3.05;;;0.82;;
73816;SDS011;62146;53.232;-1.304;2023-02-28T16:45:33;3.03;;;0.77;;
73816;SDS011;62146;53.232;-1.304;2023-02-28T16:47:59;3.50;;;0.82;;
73816;SDS011;62146;53.232;-1.304;2023-02-28T16:50:27;2.93;;;0.90;;
73816;SDS011;62146;53.232;-1.304;2023-02-28T16:52:56;4.78;;;1.00;;
73816;SDS011;62146;53.232;-1.304;2023-02-28T16:55:26;2.58;;;0.90;;
73816;SDS011;62146;53.232;-1.304;2023-02-28T16:57:54;3.47;;;0.98;;
73816;SDS011;62146;53.232;-1.304;2023-02-28T17:00:23;2.75;;;1.00;;
73816;SDS011;62146;53.232;-1.304;2023-02-28T17:02:51;2.73;;;1.03;;
73816;SDS011;62146;53.232;-1.304;2023-02-28T17:05:18;4.55;;;1.08;;
73816;SDS011;62146;53.232;-1.304;2023-02-28T17:07:45;3.55;;;1.35;;
73816;SDS011;62146;53.232;-1.304;2023-02-28T17:10:19;3.33;;;1.05;;
73816;SDS011;62146;53.232;-1.304;2023-02-28T17:12:48;3.60;;;1.13;;
73816;SDS011;62146;53.232;-1.304;2023-02-28T17:15:16;4.30;;;1.20;;
73816;SDS011;62146;53.232;-1.304;2023-02-28T17:17:44;3.70;;;1.40;;
73816;SDS011;62146;53.232;-1.304;2023-02-28T17:20:16;5.10;;;1.50;;
73816;SDS011;62146;53.232;-1.304;2023-02-28T17:22:44;4.00;;;1.20;;
73816;SDS011;62146;53.232;-1.304;2023-02-28T17:25:11;3.03;;;1.27;;
73816;SDS011;62146;53.232;-1.304;2023-02-28T17:27:38;3.50;;;1.20;;
73816;SDS011;62146;53.232;-1.304;2023-02-28T17:30:14;3.58;;;1.38;;
73816;SDS011;62146;53.232;-1.304;2023-02-28T17:32:44;4.70;;;1.30;;
73816;SDS011;62146;53.232;-1.304;2023-02-28T17:35:10;3.95;;;1.33;;